Time;durP1;ratioP1;P1;durP2;ratioP2;P2;SDS_P1;SDS_P2;PMS_P1;PMS_P2;Temp;Humidity;BMP_temperature;BMP_pressure;BME280_temperature;BME280_humidity;BME280_pressure;Samples;Min_cycle;Max_cycle;Signal;HPM_P1;HPM_P2
2023/09/12 00:02:13;;;;;;;27.52;23.08;;;;;;;20.00;100.00;101205.66;5049420;28;20017;-54
2023/09/12 00:04:38;;;;;;;29.23;22.95;;;;;;;19.99;100.00;101208.53;5044080;28;20025;-52
2023/09/12 00:07:03;;;;;;;26.60;21.67;;;;;;;19.98;100.00;101223.00;5050218;28;20387;-51
2023/09/12 00:09:29;;;;;;;28.50;23.15;;;;;;;19.91;100.00;101218.28;5045504;28;20303;-52
2023/09/12 00:11:54;;;;;;;24.83;22.30;;;;;;;19.91;100.00;101215.59;5054754;28;20091;-51
2023/09/12 00:14:20;;;;;;;26.60;22.88;;;;;;;19.90;100.00;101219.31;5052070;28;20028;-52
2023/09/12 00:16:46;;;;;;;27.52;22.10;;;;;;;19.88;100.00;101215.91;5052007;28;20091;-52
2023/09/12 00:19:11;;;;;;;25.08;21.52;;;;;;;19.87;100.00;101216.94;5045530;28;20030;-54
2023/09/12 00:21:37;;;;;;;27.63;22.63;;;;;;;19.85;100.00;101220.81;5049766;28;20075;-54
2023/09/12 00:24:02;;;;;;;24.80;21.30;;;;;;;19.85;100.00;101223.50;5045524;28;20065;-54
2023/09/12 00:26:28;;;;;;;23.83;21.40;;;;;;;19.79;100.00;101222.34;5049223;28;20431;-53
2023/09/12 00:28:53;;;;;;;29.10;22.98;;;;;;;19.78;100.00;101220.66;5044911;28;20112;-54
2023/09/12 00:31:18;;;;;;;25.13;22.52;;;;;;;19.73;100.00;101214.88;5046640;28;20018;-52
2023/09/12 00:33:44;;;;;;;27.85;21.83;;;;;;;19.69;100.00;101214.38;5048362;28;20456;-54
2023/09/12 00:36:09;;;;;;;25.80;21.38;;;;;;;19.66;100.00;101220.09;5049606;28;20025;-55
2023/09/12 00:38:34;;;;;;;26.08;20.92;;;;;;;19.67;100.00;101219.13;5042436;28;20033;-54
2023/09/12 00:41:00;;;;;;;25.30;21.60;;;;;;;19.63;100.00;101220.44;5048535;28;20029;-54
2023/09/12 00:43:25;;;;;;;25.27;22.17;;;;;;;19.61;100.00;101217.06;5043681;28;20053;-52
2023/09/12 00:45:50;;;;;;;24.52;21.95;;;;;;;19.54;100.00;101218.78;5050536;28;20104;-51
2023/09/12 00:48:18;;;;;;;29.95;21.80;;;;;;;19.52;100.00;101210.03;5046977;28;20534;-54
2023/09/12 00:50:46;;;;;;;24.33;21.77;;;;;;;19.48;100.00;101214.03;5050952;28;20074;-53
2023/09/12 00:53:12;;;;;;;27.95;22.10;;;;;;;19.48;100.00;101216.75;5047400;28;20124;-53
2023/09/12 00:55:42;;;;;;;25.48;21.05;;;;;;;19.47;100.00;101210.50;5052378;28;20108;-53
2023/09/12 00:58:08;;;;;;;25.75;21.20;;;;;;;19.40;100.00;101207.66;5048155;28;20037;-54
2023/09/12 01:00:33;;;;;;;26.35;22.05;;;;;;;19.39;100.00;101205.94;5052929;28;20028;-52
2023/09/12 01:02:59;;;;;;;23.10;20.60;;;;;;;19.39;100.00;101208.66;5045234;28;20447;-54
2023/09/12 01:05:24;;;;;;;23.95;21.13;;;;;;;19.36;100.00;101208.97;5050503;28;20028;-53
2023/09/12 01:07:50;;;;;;;24.30;20.35;;;;;;;19.36;100.00;101213.53;5045414;28;20130;-53
2023/09/12 01:10:16;;;;;;;25.58;21.48;;;;;;;19.31;100.00;101205.94;5040982;28;20032;-54
2023/09/12 01:12:41;;;;;;;28.20;20.63;;;;;;;19.27;100.00;101204.59;5049161;28;20035;-51
2023/09/12 01:15:13;;;;;;;23.33;20.50;;;;;;;19.25;100.00;101205.75;5052968;28;20021;-52
2023/09/12 01:17:38;;;;;;;24.10;19.30;;;;;;;19.25;100.00;101205.75;5041319;28;20080;-52
2023/09/12 01:20:07;;;;;;;23.13;20.48;;;;;;;19.13;100.00;101208.75;5051218;28;20025;-53
2023/09/12 01:22:51;;;;;;;23.13;20.67;;;;;;;19.10;100.00;101205.56;5057512;28;20063;-53
2023/09/12 01:25:31;;;;;;;29.83;20.65;;;;;;;19.09;100.00;101201.19;5050130;28;20131;-52
2023/09/12 01:28:01;;;;;;;21.92;19.13;;;;;;;19.01;100.00;101202.84;5044268;28;20071;-53
2023/09/12 01:30:28;;;;;;;24.33;19.38;;;;;;;18.95;100.00;101197.28;5049779;28;20036;-54
2023/09/12 01:32:54;;;;;;;23.08;18.52;;;;;;;18.98;100.00;101199.66;5045661;28;20043;-52
2023/09/12 01:35:19;;;;;;;25.58;19.20;;;;;;;18.92;100.00;101194.91;5056520;28;20464;-55
2023/09/12 01:37:45;;;;;;;21.75;18.77;;;;;;;18.94;100.00;101192.91;5036216;28;20053;-51
2023/09/12 01:40:11;;;;;;;22.63;19.38;;;;;;;18.90;100.00;101189.72;5044324;28;20033;-51
2023/09/12 01:42:39;;;;;;;25.85;20.60;;;;;;;18.86;100.00;101193.72;5046437;28;20029;-55
2023/09/12 01:45:06;;;;;;;23.00;18.15;;;;;;;18.81;100.00;101182.56;5043647;28;20025;-54
2023/09/12 01:47:34;;;;;;;21.92;19.38;;;;;;;18.86;100.00;101201.81;5054577;28;20029;-52
2023/09/12 01:50:00;;;;;;;21.52;19.23;;;;;;;18.80;100.00;101202.41;5045615;28;20025;-52
2023/09/12 01:52:27;;;;;;;22.45;18.13;;;;;;;18.81;100.00;101201.41;5047647;28;20056;-53
2023/09/12 01:54:53;;;;;;;24.90;18.88;;;;;;;18.79;100.00;101206.13;5041978;28;20032;-54
2023/09/12 01:57:22;;;;;;;25.80;19.05;;;;;;;18.67;100.00;101206.41;5042670;28;20029;-53
2023/09/12 01:59:49;;;;;;;19.48;17.33;;;;;;;18.67;100.00;101211.78;5038173;28;20035;-51
2023/09/12 02:02:18;;;;;;;19.77;17.08;;;;;;;18.63;100.00;101206.88;5043095;28;20100;-54
2023/09/12 02:04:51;;;;;;;;;;;;;;;18.78;100.00;101209.81;5053667;28;20128;-52
2023/09/12 02:07:16;;;;;;;15.18;13.55;;;;;;;18.64;100.00;101197.81;5045296;28;20003;-52
2023/09/12 02:09:42;;;;;;;16.27;14.20;;;;;;;18.53;100.00;101188.19;5044547;28;20125;-51
2023/09/12 02:12:08;;;;;;;14.60;12.95;;;;;;;18.58;100.00;101193.91;5054168;28;20047;-54
2023/09/12 02:14:34;;;;;;;14.60;13.10;;;;;;;18.52;100.00;101194.59;5043568;28;20486;-52
2023/09/12 02:16:59;;;;;;;13.63;12.32;;;;;;;18.47;100.00;101191.53;5047175;28;20059;-52
2023/09/12 02:19:24;;;;;;;12.93;11.63;;;;;;;18.48;100.00;101196.75;5045972;28;20025;-52
2023/09/12 02:21:49;;;;;;;11.47;10.20;;;;;;;18.47;100.00;101197.75;5049689;28;20288;-52
2023/09/12 02:24:15;;;;;;;10.57;9.68;;;;;;;18.45;100.00;101197.06;5046925;28;20291;-52
2023/09/12 02:26:41;;;;;;;10.57;9.68;;;;;;;18.40;100.00;101201.22;5050140;28;20029;-51
2023/09/12 02:29:07;;;;;;;11.30;9.98;;;;;;;18.35;100.00;101212.47;5048118;28;20020;-52
2023/09/12 02:31:32;;;;;;;11.30;10.18;;;;;;;18.36;100.00;101199.88;5041951;28;20077;-53
2023/09/12 02:33:57;;;;;;;13.70;10.55;;;;;;;18.30;100.00;101202.22;5033347;28;20041;-52
2023/09/12 02:36:23;;;;;;;10.57;9.47;;;;;;;18.32;100.00;101199.34;5052961;28;20045;-53
2023/09/12 02:38:48;;;;;;;12.93;11.35;;;;;;;18.24;100.00;101200.16;5050202;28;20769;-53
2023/09/12 02:41:13;;;;;;;11.97;10.13;;;;;;;18.28;100.00;101204.19;5043886;28;20036;-53
2023/09/12 02:43:39;;;;;;;11.55;10.55;;;;;;;18.23;100.00;101193.06;5047399;28;20387;-52
2023/09/12 02:46:04;;;;;;;10.90;9.88;;;;;;;18.22;100.00;101194.09;5054778;28;20024;-51
2023/09/12 02:48:29;;;;;;;11.23;10.02;;;;;;;18.23;100.00;101194.91;5049263;28;20055;-52
2023/09/12 02:50:55;;;;;;;12.32;11.02;;;;;;;18.18;100.00;101191.88;5051593;28;20097;-52
2023/09/12 02:53:20;;;;;;;12.70;11.40;;;;;;;18.15;100.00;101187.63;5044754;28;20406;-51
2023/09/12 02:55:45;;;;;;;12.50;11.25;;;;;;;18.14;100.00;101194.03;5044646;28;20123;-51
2023/09/12 02:58:10;;;;;;;15.00;12.03;;;;;;;18.12;100.00;101190.66;5050545;28;20103;-52
2023/09/12 03:00:40;;;;;;;18.42;11.98;;;;;;;18.11;100.00;101186.28;5045712;28;20310;-52
2023/09/12 03:03:06;;;;;;;15.95;12.23;;;;;;;18.09;100.00;101194.50;5045971;28;20040;-52
2023/09/12 03:05:31;;;;;;;15.30;13.68;;;;;;;18.02;100.00;101198.84;5052293;28;20033;-52
2023/09/12 03:07:56;;;;;;;17.02;13.65;;;;;;;18.01;100.00;101193.63;5047524;28;20021;-52
2023/09/12 03:10:22;;;;;;;16.15;13.82;;;;;;;17.97;100.00;101195.78;5047637;28;20025;-51
2023/09/12 03:12:47;;;;;;;15.52;12.93;;;;;;;17.99;100.00;101192.94;5046222;28;20268;-51
2023/09/12 03:15:12;;;;;;;18.33;13.20;;;;;;;17.99;100.00;101199.16;5051593;28;20052;-52
2023/09/12 03:17:38;;;;;;;13.50;12.07;;;;;;;18.00;100.00;101200.84;5057468;28;20490;-52
2023/09/12 03:20:07;;;;;;;16.50;14.23;;;;;;;17.96;100.00;101190.56;5050737;28;20100;-52
2023/09/12 03:22:37;;;;;;;15.73;13.77;;;;;;;17.96;100.00;101194.09;5044430;28;20036;-51
2023/09/12 03:25:03;;;;;;;18.58;14.35;;;;;;;17.93;100.00;101181.78;5051389;28;20078;-52
2023/09/12 03:27:28;;;;;;;18.42;14.73;;;;;;;17.89;100.00;101177.75;5051675;28;20025;-51
2023/09/12 03:29:53;;;;;;;17.05;14.18;;;;;;;17.90;100.00;101176.75;5053382;28;20077;-51
2023/09/12 03:32:18;;;;;;;20.10;14.18;;;;;;;17.90;100.00;101190.19;5046325;28;20475;-51
2023/09/12 03:34:44;;;;;;;17.08;13.77;;;;;;;17.90;100.00;101178.59;5047717;28;20057;-52
2023/09/12 03:37:09;;;;;;;18.42;14.43;;;;;;;17.88;100.00;101181.41;5052420;28;20049;-53
2023/09/12 03:39:34;;;;;;;17.13;14.93;;;;;;;17.84;100.00;101181.88;5058414;28;20032;-52
2023/09/12 03:42:00;;;;;;;19.83;14.30;;;;;;;17.81;100.00;101182.19;5052423;28;20483;-53
2023/09/12 03:44:25;;;;;;;16.92;13.52;;;;;;;17.79;100.00;101185.03;5054293;28;20045;-52
2023/09/12 03:46:50;;;;;;;16.42;14.13;;;;;;;17.75;100.00;101181.81;5055362;28;20026;-54
2023/09/12 03:49:16;;;;;;;17.55;14.95;;;;;;;17.80;100.00;101180.50;5050668;28;20078;-51
2023/09/12 03:51:41;;;;;;;21.90;16.15;;;;;;;17.78;100.00;101182.50;5048994;28;20029;-51
2023/09/12 03:54:07;;;;;;;19.00;15.35;;;;;;;17.74;100.00;101182.81;5048614;28;20095;-51
2023/09/12 03:56:32;;;;;;;17.15;15.45;;;;;;;17.73;100.00;101181.13;5046428;28;20033;-52
2023/09/12 03:58:59;;;;;;;15.90;14.15;;;;;;;17.73;100.00;101183.81;5046637;28;20025;-51
2023/09/12 04:01:25;;;;;;;17.02;13.13;;;;;;;17.73;100.00;101183.81;5048063;28;20028;-51
2023/09/12 04:03:50;;;;;;;14.48;12.85;;;;;;;17.71;100.00;101179.59;5050081;28;20032;-52
2023/09/12 04:06:15;;;;;;;14.23;12.65;;;;;;;17.72;100.00;101175.94;5041610;28;20036;-53
2023/09/12 04:08:41;;;;;;;14.40;12.43;;;;;;;17.69;100.00;101177.06;5048806;28;20075;-51
2023/09/12 04:11:06;;;;;;;13.15;11.75;;;;;;;17.70;100.00;101178.75;5045638;28;20032;-52
2023/09/12 04:13:31;;;;;;;14.45;12.70;;;;;;;17.69;100.00;101171.69;5045886;28;20026;-51
2023/09/12 04:15:57;;;;;;;15.35;13.80;;;;;;;17.69;100.00;101169.00;5046586;28;20503;-55
2023/09/12 04:18:22;;;;;;;16.75;14.18;;;;;;;17.62;100.00;101170.63;5055700;28;20017;-52
2023/09/12 04:20:47;;;;;;;16.27;13.18;;;;;;;17.71;100.00;101176.91;5046396;28;20108;-52
2023/09/12 04:23:12;;;;;;;15.50;13.90;;;;;;;17.68;100.00;101169.16;5049774;28;20029;-52
2023/09/12 04:25:42;;;;;;;16.25;14.23;;;;;;;17.67;100.00;101168.31;5047173;28;20062;-52
2023/09/12 04:28:07;;;;;;;16.35;14.65;;;;;;;17.71;100.00;101171.53;5044657;28;20022;-52
2023/09/12 04:30:33;;;;;;;17.40;13.77;;;;;;;17.69;100.00;101165.50;5052795;28;20036;-52
2023/09/12 04:32:58;;;;;;;16.17;14.55;;;;;;;17.70;100.00;101172.53;5050019;28;20029;-51
2023/09/12 04:35:25;;;;;;;19.50;14.43;;;;;;;17.69;100.00;101184.28;5049927;28;20025;-51
2023/09/12 04:37:50;;;;;;;17.58;13.93;;;;;;;17.71;100.00;101188.50;5050491;28;20374;-52
2023/09/12 04:40:15;;;;;;;18.63;15.02;;;;;;;17.69;100.00;101186.97;5050365;28;20116;-51
2023/09/12 04:42:41;;;;;;;17.55;15.75;;;;;;;17.72;100.00;101176.75;5049357;28;20067;-53
2023/09/12 04:45:06;;;;;;;19.92;16.40;;;;;;;17.70;100.00;101175.22;5044523;28;20036;-52
2023/09/12 04:47:32;;;;;;;20.50;15.82;;;;;;;17.70;100.00;101173.41;5043633;28;20041;-52
2023/09/12 04:49:57;;;;;;;19.63;15.30;;;;;;;17.70;100.00;101176.06;5043375;28;20056;-51
2023/09/12 04:52:22;;;;;;;18.80;15.87;;;;;;;17.68;100.00;101185.28;5049829;28;20120;-50
2023/09/12 04:54:48;;;;;;;18.88;15.95;;;;;;;17.70;100.00;101189.50;5045113;28;20737;-51
2023/09/12 04:57:13;;;;;;;17.95;15.30;;;;;;;17.70;100.00;101191.34;5049793;28;20120;-52
2023/09/12 04:59:38;;;;;;;20.27;16.08;;;;;;;17.70;100.00;101188.66;5045369;28;20075;-51
2023/09/12 05:02:04;;;;;;;19.02;15.52;;;;;;;17.68;100.00;101198.72;5048603;28;20078;-53
2023/09/12 05:04:29;;;;;;;20.08;16.90;;;;;;;17.66;100.00;101189.97;5055168;28;20117;-51
2023/09/12 05:06:55;;;;;;;20.50;18.17;;;;;;;17.65;100.00;101189.13;5044518;28;20032;-54
2023/09/12 05:09:20;;;;;;;20.00;17.25;;;;;;;17.65;100.00;101190.97;5048053;28;20032;-54
2023/09/12 05:11:46;;;;;;;21.77;17.88;;;;;;;17.66;100.00;101192.66;5049578;28;20025;-52
2023/09/12 05:14:11;;;;;;;22.08;18.20;;;;;;;17.64;100.00;101195.50;5052821;28;20025;-52
2023/09/12 05:16:36;;;;;;;21.42;17.77;;;;;;;17.65;100.00;101194.50;5051779;28;20022;-52
2023/09/12 05:19:02;;;;;;;21.38;19.08;;;;;;;17.63;100.00;101195.66;5041161;28;20029;-52
2023/09/12 05:21:27;;;;;;;22.02;19.58;;;;;;;17.65;100.00;101193.66;5049358;28;20017;-52
2023/09/12 05:23:52;;;;;;;24.67;20.25;;;;;;;17.61;100.00;101193.13;5044761;28;20104;-51
2023/09/12 05:26:18;;;;;;;24.60;19.50;;;;;;;17.68;100.00;101179.91;5047983;28;20035;-53
2023/09/12 05:28:43;;;;;;;20.98;18.73;;;;;;;17.64;100.00;101178.53;5051778;28;20091;-54
2023/09/12 05:31:09;;;;;;;27.52;19.55;;;;;;;17.68;100.00;101167.31;5050215;28;20025;-52
2023/09/12 05:33:34;;;;;;;24.92;19.25;;;;;;;17.68;100.00;101158.41;5041393;28;20107;-52
2023/09/12 05:36:00;;;;;;;24.70;19.33;;;;;;;17.68;100.00;101155.72;5040521;28;21452;-52
2023/09/12 05:38:25;;;;;;;24.42;19.67;;;;;;;17.68;100.00;101158.41;5041629;28;20120;-50
2023/09/12 05:40:51;;;;;;;24.45;19.80;;;;;;;17.69;100.00;101160.94;5050858;28;20391;-50
2023/09/12 05:43:17;;;;;;;26.48;19.20;;;;;;;17.68;100.00;101164.63;5051209;28;20472;-51
2023/09/12 05:45:43;;;;;;;24.75;20.25;;;;;;;17.69;100.00;101165.50;5040257;28;20108;-52
2023/09/12 05:48:09;;;;;;;25.90;19.95;;;;;;;17.70;100.00;101169.84;5051526;28;20033;-56
2023/09/12 05:50:36;;;;;;;23.88;19.40;;;;;;;17.74;100.00;101180.13;5038426;28;20025;-52
2023/09/12 05:53:01;;;;;;;23.35;19.33;;;;;;;17.72;100.00;101178.59;5036485;28;20035;-52
2023/09/12 05:55:27;;;;;;;27.17;20.70;;;;;;;17.77;100.00;101181.66;5044991;28;20021;-51
2023/09/12 05:57:52;;;;;;;27.55;22.10;;;;;;;17.79;100.00;101179.66;5045643;28;20028;-52
2023/09/12 06:00:18;;;;;;;25.58;19.30;;;;;;;17.78;100.00;101180.66;5037585;28;20431;-52
2023/09/12 06:02:45;;;;;;;24.52;18.77;;;;;;;17.79;100.00;101181.50;5052632;28;20024;-55
2023/09/12 06:05:10;;;;;;;30.75;20.80;;;;;;;17.80;100.00;101183.19;5049995;28;20565;-53
2023/09/12 06:07:37;;;;;;;23.63;19.40;;;;;;;17.83;100.00;101191.78;5040878;28;20020;-51
2023/09/12 06:10:03;;;;;;;27.52;20.02;;;;;;;17.82;100.00;101195.47;5056223;28;20028;-55
2023/09/12 06:12:28;;;;;;;25.13;19.38;;;;;;;17.86;100.00;101193.31;5047209;28;20048;-50
2023/09/12 06:14:55;;;;;;;25.87;19.60;;;;;;;17.85;100.00;101192.47;5033749;28;20029;-49
2023/09/12 06:17:21;;;;;;;22.95;19.60;;;;;;;17.87;100.00;101195.88;5035748;28;20684;-50
2023/09/12 06:19:49;;;;;;;27.10;19.98;;;;;;;17.90;100.00;101200.06;5038288;28;20062;-49
2023/09/12 06:22:15;;;;;;;27.45;20.60;;;;;;;17.89;100.00;101198.41;5041556;28;20029;-51
2023/09/12 06:24:40;;;;;;;26.85;20.60;;;;;;;17.88;100.00;101202.91;5042191;28;20498;-54
2023/09/12 06:27:06;;;;;;;23.75;19.58;;;;;;;17.90;100.00;101197.38;5049903;28;20082;-52
2023/09/12 06:29:31;;;;;;;28.63;19.83;;;;;;;17.91;100.00;101194.56;5027285;28;20033;-52
2023/09/12 06:31:57;;;;;;;30.92;21.55;;;;;;;17.89;100.00;101199.25;5038632;28;20033;-55
2023/09/12 06:34:22;;;;;;;28.83;20.70;;;;;;;17.90;100.00;101203.63;5043524;28;20029;-52
2023/09/12 06:36:48;;;;;;;29.15;21.00;;;;;;;17.93;100.00;101205.16;5042723;28;20499;-52
2023/09/12 06:39:13;;;;;;;28.13;20.52;;;;;;;17.94;100.00;101201.47;5040246;28;20025;-51
2023/09/12 06:41:38;;;;;;;33.78;22.20;;;;;;;17.95;100.00;101211.19;5048287;28;20029;-51
2023/09/12 06:44:05;;;;;;;28.63;20.30;;;;;;;17.99;100.00;101209.06;5048010;28;20166;-51
2023/09/12 06:46:30;;;;;;;28.05;21.20;;;;;;;18.00;100.00;101216.97;5049729;28;20091;-49
2023/09/12 06:48:56;;;;;;;24.17;21.58;;;;;;;18.02;100.00;101214.97;5048728;28;20057;-52
2023/09/12 06:51:28;;;;;;;28.75;22.42;;;;;;;18.04;100.00;101218.34;5046175;28;20563;-52
2023/09/12 06:53:53;;;;;;;28.80;22.55;;;;;;;18.09;100.00;101220.56;5055509;28;20032;-53
2023/09/12 06:56:18;;;;;;;27.70;23.15;;;;;;;18.12;100.00;101220.25;5045638;28;20371;-53
2023/09/12 06:58:44;;;;;;;27.27;22.70;;;;;;;18.14;100.00;101225.47;5048667;28;20431;-53
2023/09/12 07:01:09;;;;;;;31.55;23.40;;;;;;;18.14;100.00;101218.22;5047641;28;20034;-52
2023/09/12 07:03:35;;;;;;;31.10;23.05;;;;;;;18.17;100.00;101215.22;5040066;28;20079;-53
2023/09/12 07:06:02;;;;;;;28.23;22.95;;;;;;;18.22;100.00;101220.09;5041121;28;20399;-54
2023/09/12 07:08:29;;;;;;;32.97;23.27;;;;;;;18.25;100.00;101217.09;5040462;28;20029;-52
2023/09/12 07:10:56;;;;;;;29.92;24.23;;;;;;;18.30;100.00;101218.34;5045315;28;20025;-52
2023/09/12 07:13:22;;;;;;;30.35;24.58;;;;;;;18.38;100.00;101222.91;5045775;28;20025;-55
2023/09/12 07:15:47;;;;;;;26.17;23.33;;;;;;;18.41;100.00;101219.06;5047797;28;20021;-53
2023/09/12 07:18:14;;;;;;;30.08;24.15;;;;;;;18.48;100.00;101220.09;5046416;28;20112;-53
2023/09/12 07:20:40;;;;;;;28.52;23.98;;;;;;;18.51;100.00;101229.72;5040290;28;20025;-53
2023/09/12 07:23:06;;;;;;;29.33;22.80;;;;;;;18.56;100.00;101227.38;5044735;28;20032;-51
2023/09/12 07:25:39;;;;;;;31.67;23.02;;;;;;;18.60;100.00;101228.72;5038656;28;20399;-50
2023/09/12 07:28:05;;;;;;;28.17;22.58;;;;;;;18.63;100.00;101223.88;5042676;28;20048;-51
2023/09/12 07:30:30;;;;;;;27.75;21.98;;;;;;;18.68;100.00;101228.78;5033969;28;20405;-51
2023/09/12 07:32:55;;;;;;;25.15;21.52;;;;;;;18.69;100.00;101235.84;5044890;28;20037;-52
2023/09/12 07:35:23;;;;;;;26.17;21.77;;;;;;;18.72;100.00;101234.66;5043286;28;20025;-51
2023/09/12 07:37:49;;;;;;;26.55;21.65;;;;;;;18.82;100.00;101228.16;5048079;28;20026;-52
2023/09/12 07:40:14;;;;;;;25.52;21.88;;;;;;;18.99;100.00;101226.41;5045612;28;20044;-51
2023/09/12 07:42:39;;;;;;;23.30;20.75;;;;;;;19.12;100.00;101227.78;5048670;28;20517;-50
2023/09/12 07:45:05;;;;;;;24.92;20.85;;;;;;;19.25;100.00;101232.69;5042171;28;20028;-52
2023/09/12 07:47:33;;;;;;;30.17;21.92;;;;;;;19.47;100.00;101226.69;5049198;28;20040;-51
2023/09/12 07:50:00;;;;;;;29.98;23.05;;;;;;;19.64;100.00;101222.13;5049673;28;20470;-50
2023/09/12 07:52:26;;;;;;;24.42;21.15;;;;;;;19.85;100.00;101224.38;5041904;28;20029;-55
2023/09/12 07:54:56;;;;;;;26.27;23.20;;;;;;;20.05;100.00;101227.56;5047770;28;20024;-51
2023/09/12 07:57:22;;;;;;;27.13;23.17;;;;;;;20.27;100.00;101222.47;5048289;28;20029;-52
2023/09/12 07:59:47;;;;;;;25.75;22.88;;;;;;;20.41;100.00;101229.81;5042418;28;20021;-51
2023/09/12 08:02:13;;;;;;;23.40;20.55;;;;;;;20.52;100.00;101240.25;5050143;28;20382;-50
2023/09/12 08:04:38;;;;;;;24.95;19.92;;;;;;;20.67;100.00;101234.16;5050827;28;20029;-51
2023/09/12 08:07:03;;;;;;;22.60;18.35;;;;;;;20.85;100.00;101237.47;5043540;28;20024;-51
2023/09/12 08:09:48;;;;;;;22.65;18.45;;;;;;;20.97;100.00;101251.41;5049431;28;20411;-51
2023/09/12 08:12:13;;;;;;;24.40;17.40;;;;;;;21.08;100.00;101260.97;5042089;28;20463;-51
2023/09/12 08:14:39;;;;;;;23.40;18.17;;;;;;;21.18;100.00;101268.84;5046367;28;20029;-53
2023/09/12 08:17:04;;;;;;;23.55;16.58;;;;;;;21.12;100.00;101275.81;5051627;28;20123;-49
2023/09/12 08:19:29;;;;;;;21.92;17.40;;;;;;;21.20;100.00;101267.69;5046508;28;20123;-49
2023/09/12 08:21:54;;;;;;;19.35;15.40;;;;;;;21.32;100.00;101269.97;5049627;28;20027;-49
2023/09/12 08:24:20;;;;;;;21.63;16.98;;;;;;;21.39;100.00;101263.66;5048864;28;20025;-49
2023/09/12 08:26:45;;;;;;;21.30;16.93;;;;;;;21.49;100.00;101271.56;5043399;28;20032;-50
2023/09/12 08:29:10;;;;;;;20.60;17.23;;;;;;;21.53;100.00;101277.47;5045971;28;20395;-50
2023/09/12 08:31:36;;;;;;;19.80;15.98;;;;;;;21.53;100.00;101278.31;5041413;28;20303;-49
2023/09/12 08:34:01;;;;;;;23.35;15.80;;;;;;;21.62;100.00;101290.75;5038177;28;20017;-48
2023/09/12 08:36:26;;;;;;;18.50;15.23;;;;;;;21.59;100.00;101291.09;5043500;28;20484;-49
2023/09/12 08:38:51;;;;;;;17.97;15.50;;;;;;;21.60;100.00;101295.50;5045330;28;20036;-49
2023/09/12 08:41:17;;;;;;;18.60;15.30;;;;;;;21.67;100.00;101294.78;5011610;28;20299;-49
2023/09/12 08:43:43;;;;;;;18.58;15.57;;;;;;;21.67;100.00;101297.50;5048137;28;20298;-49
2023/09/12 08:46:10;;;;;;;17.88;15.25;;;;;;;21.72;100.00;101287.81;5039921;28;20028;-49
2023/09/12 08:48:37;;;;;;;18.85;16.88;;;;;;;21.75;100.00;101282.03;5038784;28;20033;-49
2023/09/12 08:51:07;;;;;;;18.90;15.15;;;;;;;21.72;100.00;101290.50;5052620;28;20047;-48
2023/09/12 08:53:32;;;;;;;16.10;14.40;;;;;;;21.76;100.00;101294.53;5042172;28;20095;-50
2023/09/12 08:55:58;;;;;;;16.38;14.38;;;;;;;21.85;100.00;101295.31;5050171;28;20478;-49
2023/09/12 08:58:25;;;;;;;14.93;13.40;;;;;;;21.97;99.97;101287.63;5040953;28;20398;-49
2023/09/12 09:00:51;;;;;;;18.85;14.65;;;;;;;22.11;100.00;101292.22;5039045;28;20502;-50
2023/09/12 09:03:18;;;;;;;20.75;14.40;;;;;;;22.34;100.00;101297.59;5039865;28;20021;-57
2023/09/12 09:05:45;;;;;;;18.38;13.48;;;;;;;22.48;99.44;101298.69;5042153;28;20067;-48
2023/09/12 09:08:12;;;;;;;16.65;13.60;;;;;;;22.56;97.86;101305.03;5042837;28;20041;-49
2023/09/12 09:10:38;;;;;;;13.27;11.85;;;;;;;22.71;97.84;101298.56;5046498;28;20033;-49
2023/09/12 09:13:06;;;;;;;14.60;11.95;;;;;;;22.91;96.42;101287.16;5042020;28;20080;-49
2023/09/12 09:15:32;;;;;;;16.83;13.47;;;;;;;23.18;93.81;101279.41;5053011;28;20048;-48
2023/09/12 09:18:00;;;;;;;21.45;16.58;;;;;;;23.35;92.55;101275.44;5032605;28;20304;-48
2023/09/12 09:20:30;;;;;;;;;;;;;;;23.45;96.43;101270.56;5037385;28;20038;-48
2023/09/12 09:22:56;;;;;;;21.05;16.90;;;;;;;23.53;94.00;101271.44;5042903;28;19966;-49
2023/09/12 09:25:21;;;;;;;21.60;18.10;;;;;;;23.62;93.97;101267.59;5041925;28;20071;-48
2023/09/12 09:27:47;;;;;;;27.92;21.42;;;;;;;23.71;91.19;101266.41;5042463;28;20041;-52
2023/09/12 09:30:12;;;;;;;25.83;20.67;;;;;;;23.81;89.18;101266.09;5049119;28;20031;-49
2023/09/12 09:32:38;;;;;;;28.45;21.45;;;;;;;23.93;87.80;101258.28;5038524;28;20292;-48
2023/09/12 09:35:03;;;;;;;28.15;22.50;;;;;;;24.12;90.05;101263.06;5043501;28;20033;-48
2023/09/12 09:37:29;;;;;;;32.05;22.98;;;;;;;24.24;87.95;101265.22;5042933;28;20091;-48
2023/09/12 09:39:55;;;;;;;30.52;24.77;;;;;;;24.41;88.20;101265.75;5040453;28;20036;-49
2023/09/12 09:42:20;;;;;;;30.77;24.02;;;;;;;24.68;86.36;101267.63;5035822;28;20041;-47
2023/09/12 09:44:47;;;;;;;30.42;24.17;;;;;;;24.99;82.40;101263.56;5044225;28;20132;-49
2023/09/12 09:47:12;;;;;;;33.67;26.00;;;;;;;25.00;79.12;101265.28;5043446;28;20025;-49
2023/09/12 09:49:38;;;;;;;31.60;24.70;;;;;;;25.18;79.47;101255.69;5031603;28;20460;-49
2023/09/12 09:52:04;;;;;;;27.65;23.45;;;;;;;25.48;79.48;101257.06;5040370;28;20047;-49
2023/09/12 09:54:29;;;;;;;33.85;24.27;;;;;;;25.77;80.98;101249.56;5037752;28;20463;-49
2023/09/12 09:56:56;;;;;;;37.13;27.45;;;;;;;25.90;80.29;101256.91;5050158;28;20052;-50
2023/09/12 09:59:26;;;;;;;31.95;26.02;;;;;;;26.03;79.83;101265.09;5043122;28;20043;-51
2023/09/12 10:01:56;;;;;;;29.75;24.45;;;;;;;26.24;75.14;101257.75;5046105;28;20113;-52
2023/09/12 10:04:22;;;;;;;28.92;22.88;;;;;;;26.36;76.44;101266.09;5046198;28;20830;-52
2023/09/12 10:06:49;;;;;;;29.85;23.10;;;;;;;26.66;75.47;101269.19;5040259;28;20064;-55
2023/09/12 10:09:16;;;;;;;29.02;23.15;;;;;;;26.80;72.34;101263.72;5037773;28;20029;-54
2023/09/12 10:11:43;;;;;;;29.45;23.08;;;;;;;26.95;72.11;101258.84;5037427;28;20035;-52
2023/09/12 10:14:11;;;;;;;28.38;23.15;;;;;;;26.90;71.80;101248.56;5040252;28;20029;-51
2023/09/12 10:16:45;;;;;;;27.30;22.92;;;;;;;27.04;72.31;101249.34;5053897;28;20035;-51
2023/09/12 10:19:22;;;;;;;26.17;22.77;;;;;;;27.09;73.75;101257.69;5048677;28;20375;-52
2023/09/12 10:22:12;;;;;;;30.90;23.25;;;;;;;27.12;73.79;101264.63;5045307;28;20460;-51
2023/09/12 10:24:39;;;;;;;31.02;23.52;;;;;;;26.83;69.73;101255.09;5046941;28;20025;-52
2023/09/12 10:27:05;;;;;;;25.90;21.15;;;;;;;27.04;68.62;101253.97;5045591;28;20025;-51
2023/09/12 10:29:31;;;;;;;27.33;22.15;;;;;;;27.21;68.98;101249.69;5044813;28;20091;-53
2023/09/12 10:31:57;;;;;;;27.38;23.42;;;;;;;27.27;68.45;101237.91;5034704;28;20025;-53
2023/09/12 10:34:25;;;;;;;28.05;24.55;;;;;;;27.32;67.25;101245.47;5043648;28;20024;-52
2023/09/12 10:36:51;;;;;;;31.88;25.77;;;;;;;27.42;67.30;101236.78;5042378;28;20099;-53
2023/09/12 10:39:19;;;;;;;31.48;25.08;;;;;;;27.44;68.95;101235.50;5044798;28;20029;-52
2023/09/12 10:41:46;;;;;;;30.73;26.83;;;;;;;27.76;70.08;101240.97;5038000;28;20024;-52
2023/09/12 10:44:15;;;;;;;75.60;33.70;;;;;;;27.81;69.27;101248.47;5038964;28;20557;-53
2023/09/12 10:46:42;;;;;;;35.97;27.98;;;;;;;27.95;66.32;101250.06;5041882;28;20037;-52
2023/09/12 10:49:08;;;;;;;35.33;28.75;;;;;;;27.87;64.01;101240.22;5039779;28;20109;-55
2023/09/12 10:51:39;;;;;;;34.33;27.90;;;;;;;27.86;67.82;101235.84;5041747;28;20058;-53
2023/09/12 10:54:05;;;;;;;31.90;25.30;;;;;;;28.03;66.54;101241.59;5042198;28;20033;-53
2023/09/12 10:56:32;;;;;;;29.88;25.70;;;;;;;28.02;65.00;101255.47;5038429;28;20033;-53
2023/09/12 10:59:06;;;;;;;55.85;29.27;;;;;;;28.02;65.57;101252.72;5043888;28;20476;-53
2023/09/12 11:01:33;;;;;;;67.18;31.40;;;;;;;27.93;64.55;101254.06;5037996;28;20029;-52